Flight Track Log - Related Links

Times and Time Zones

All times are in EDT time to prevent confusion due to time zone crossing. See the SWA946 flight status page for this flight to view local times or setup timezone preferences in your user account.

Time Position Orientation Groundspeed Altitude Reporting Facility
EDT Latitude Longitude Course Direction KTS MPH feet Rate Location/Type
Sat 10:27:46 AM 36.0667 -86.7500 253° West 227 261 3,900  Level Nashville TRACON
Sat 10:28:46 AM 36.1000 -86.8167 302° West 244 281 4,000 600 Climbing Nashville TRACON
Sat 10:29:46 AM 36.1333 -86.8833 302° West 260 299 5,100 2,156 Climbing Nashville TRACON
Sat 10:30:54 AM 36.1211 -86.9883 262° West 263 303 8,600 2,719 Climbing Memphis Center
Sat 10:31:54 AM 36.1131 -87.0811 264° West 263 303 10,900 2,000 Climbing Memphis Center
Sat 10:32:54 AM 36.1014 -87.1922 263° West 306 352 12,600 2,150 Climbing Memphis Center
Sat 10:33:54 AM 36.0792 -87.3061 256° West 341 392 15,200 2,450 Climbing Memphis Center
Sat 10:34:54 AM 36.0572 -87.4225 257° West 349 402 17,500 2,000 Climbing Memphis Center
Sat 10:35:54 AM 36.0328 -87.5414 256° West 360 414 19,200 1,800 Climbing Memphis Center
Sat 10:36:54 AM 36.0064 -87.6681 256° West 365 420 21,100 1,550 Climbing Memphis Center
Sat 10:37:54 AM 35.9836 -87.7817 256° West 372 428 22,300 1,500 Climbing Memphis Center
Sat 10:38:54 AM 35.9592 -87.9081 257° West 378 435 24,100 1,800 Climbing Memphis Center
Sat 10:39:54 AM 35.9114 -88.0297 244° Southwest 383 441 25,900 1,850 Climbing Memphis Center
Sat 10:40:54 AM 35.8594 -88.1517 242° Southwest 383 441 27,800 1,750 Climbing Memphis Center
Sat 10:41:54 AM 35.8053 -88.2658 240° Southwest 383 441 29,400 1,550 Climbing Memphis Center
Sat 10:42:54 AM 35.7569 -88.3769 242° Southwest 383 441 30,900 1,550 Climbing Memphis Center
Sat 10:43:54 AM 35.7064 -88.4856 240° Southwest 383 441 32,500 1,350 Climbing Memphis Center
Sat 10:44:54 AM 35.6561 -88.5942 240° Southwest 378 435 33,600 950 Climbing Memphis Center
Sat 10:45:54 AM 35.6053 -88.7022 240° Southwest 378 435 34,400 700 Climbing Memphis Center
Sat 10:46:54 AM 35.5650 -88.8028 244° Southwest 373 429 35,000 300 Climbing Memphis Center
Sat 10:47:54 AM 35.5119 -88.9158 240° Southwest 379 436 35,000  Level Memphis Center
Sat 10:48:54 AM 35.4528 -89.0164 234° Southwest 379 436 35,000 50 Level Memphis Center
Sat 10:49:54 AM 35.3681 -89.1094 222° Southwest 374 430 35,100 500 Climbing Memphis Center
Sat 10:50:54 AM 35.2939 -89.2022 226° Southwest 379 436 36,000 450 Climbing Memphis Center
Sat 10:51:54 AM 35.2406 -89.3044 237° Southwest 372 428 36,000  Level Memphis Center
Sat 10:52:54 AM 35.1853 -89.4069 237° Southwest 367 422 36,000  Level Memphis Center
Sat 10:53:54 AM 35.1297 -89.5117 237° Southwest 367 422 36,000  Level Memphis Center
Sat 10:54:54 AM 35.0719 -89.6136 235° Southwest 367 422 36,000  Level Memphis Center
Sat 10:55:54 AM 35.0181 -89.7131 237° Southwest 367 422 36,000  Level Memphis Center
Sat 10:56:54 AM 34.9706 -89.7994 236° Southwest 372 428 36,000  Level Memphis Center
Sat 10:57:54 AM 34.9022 -89.9292 237° Southwest 377 434 36,000  Level Memphis Center
Sat 10:58:54 AM 34.8419 -90.0306 234° Southwest 382 440 36,000  Level Memphis Center
Sat 10:59:54 AM 34.7819 -90.1347 235° Southwest 382 440 36,000  Level Memphis Center
Sat 11:00:54 AM 34.7214 -90.2408 235° Southwest 382 440 36,000  Level Memphis Center
Sat 11:01:54 AM 34.6653 -90.3419 236° Southwest 377 434 36,000  Level Memphis Center
Sat 11:02:54 AM 34.6047 -90.4428 234° Southwest 382 440 36,000  Level Memphis Center
Sat 11:03:54 AM 34.5461 -90.5486 236° Southwest 382 440 36,000  Level Memphis Center
Sat 11:04:54 AM 34.4875 -90.6519 235° Southwest 376 433 36,000  Level Memphis Center
Sat 11:05:54 AM 34.4331 -90.7475 235° Southwest 381 438 36,000  Level Memphis Center
Sat 11:06:54 AM 34.3742 -90.8503 235° Southwest 375 432 36,000  Level Memphis Center
Sat 11:07:54 AM 34.3133 -90.9531 234° Southwest 383 441 36,000  Level Memphis Center
Sat 11:08:54 AM 34.2522 -91.0583 235° Southwest 383 441 36,000  Level Memphis Center
Sat 11:09:54 AM 34.1931 -91.1658 236° Southwest 383 441 36,000  Level Memphis Center
Sat 11:10:54 AM 34.1297 -91.2681 233° Southwest 383 441 36,000  Level Memphis Center
Sat 11:11:54 AM 34.0664 -91.3753 235° Southwest 383 441 36,000  Level Memphis Center
Sat 11:12:54 AM 34.0028 -91.4897 236° Southwest 383 441 36,000  Level Memphis Center
Sat 11:13:54 AM 33.9392 -91.5967 234° Southwest 389 448 36,000  Level Memphis Center
Sat 11:16:03 AM 33.8128 -91.8192 236° Southwest 374 430 36,000  Level Fort Worth Center
Sat 11:17:03 AM 33.7528 -91.9253 236° Southwest 379 436 36,000  Level Fort Worth Center
Sat 11:18:03 AM 33.6906 -92.0292 234° Southwest 384 442 36,000  Level Fort Worth Center
Sat 11:19:03 AM 33.6261 -92.1303 233° Southwest 384 442 36,000  Level Fort Worth Center
Sat 11:20:03 AM 33.5636 -92.2361 235° Southwest 384 442 36,000  Level Fort Worth Center
Sat 11:21:03 AM 33.5053 -92.3367 235° Southwest 384 442 36,000  Level Fort Worth Center
Sat 11:22:03 AM 33.4425 -92.4400 234° Southwest 384 442 36,000  Level Fort Worth Center
Sat 11:23:03 AM 33.3819 -92.5428 235° Southwest 384 442 36,000  Level Fort Worth Center
Sat 11:24:03 AM 33.3189 -92.6433 233° Southwest 384 442 36,000  Level Fort Worth Center
Sat 11:25:03 AM 33.2581 -92.7433 234° Southwest 384 442 36,000  Level Fort Worth Center
Sat 11:26:03 AM 33.2100 -92.8528 242° Southwest 384 442 36,000  Level Fort Worth Center
Sat 11:27:03 AM 33.1594 -92.9619 241° Southwest 379 436 36,000  Level Fort Worth Center
Sat 11:28:03 AM 33.1089 -93.0686 241° Southwest 379 436 36,000  Level Fort Worth Center
Sat 11:29:03 AM 33.0606 -93.1750 242° Southwest 379 436 36,000  Level Fort Worth Center
Sat 11:30:03 AM 33.0156 -93.2714 241° Southwest 379 436 36,000  Level Fort Worth Center
Sat 11:31:03 AM 32.9692 -93.3800 243° Southwest 379 436 36,000  Level Fort Worth Center
Sat 11:32:03 AM 32.9203 -93.4861 241° Southwest 379 436 36,000  Level Fort Worth Center
Sat 11:33:03 AM 32.8694 -93.5922 240° Southwest 379 436 36,000  Level Fort Worth Center
Sat 11:34:03 AM 32.8203 -93.7006 242° Southwest 379 436 36,000  Level Fort Worth Center
Sat 11:35:03 AM 32.7714 -93.8064 241° Southwest 379 436 36,000  Level Fort Worth Center
Sat 11:36:03 AM 32.7286 -93.9192 246° West 379 436 36,000  Level Fort Worth Center
Sat 11:37:03 AM 32.6897 -94.0292 247° West 373 429 36,000  Level Fort Worth Center
Sat 11:38:03 AM 32.6489 -94.1394 246° West 367 422 36,000  Level Fort Worth Center
Sat 11:39:03 AM 32.6078 -94.2494 246° West 362 417 36,000  Level Fort Worth Center
Sat 11:40:03 AM 32.5667 -94.3592 246° West 362 417 36,000  Level Fort Worth Center
Sat 11:41:03 AM 32.5256 -94.4714 247° West 362 417 36,000  Level Fort Worth Center
Sat 11:42:03 AM 32.4864 -94.5811 247° West 362 417 36,000  Level Fort Worth Center
Sat 11:43:03 AM 32.4450 -94.6908 246° West 368 423 36,000  Level Fort Worth Center
Sat 11:44:03 AM 32.4033 -94.8028 246° West 368 423 36,000  Level Fort Worth Center
Sat 11:45:03 AM 32.3619 -94.9122 246° West 368 423 36,000  Level Fort Worth Center
Sat 11:46:03 AM 32.3225 -95.0336 249° West 363 418 36,000  Level Fort Worth Center
Sat 11:47:03 AM 32.2867 -95.1328 247° West 363 418 36,000  Level Fort Worth Center
Sat 11:48:03 AM 32.2428 -95.2444 245° Southwest 363 418 36,000  Level Fort Worth Center
Sat 11:49:03 AM 32.2028 -95.3558 247° West 370 426 36,000 -200 Level Fort Worth Center
Sat 11:50:03 AM 32.1628 -95.4647 247° West 376 433 35,600 -700 Descending Fort Worth Center
Sat 11:51:03 AM 32.1186 -95.5786 245° Southwest 376 433 34,600 -800 Descending Fort Worth Center
Sat 11:52:03 AM 32.0761 -95.6825 244° Southwest 370 426 34,000 -300 Descending Fort Worth Center
Sat 11:53:03 AM 32.0297 -95.7986 245° Southwest 357 411 34,000  Level Fort Worth Center
Sat 11:54:03 AM 31.9894 -95.9094 247° West 370 426 34,000  Level Fort Worth Center
Sat 11:55:03 AM 31.9489 -96.0178 246° West 370 426 34,000  Level Fort Worth Center
Sat 11:56:03 AM 31.9061 -96.1311 246° West 364 419 34,000  Level Fort Worth Center
Sat 11:57:03 AM 31.8633 -96.2392 245° Southwest 369 425 34,000  Level Fort Worth Center
Sat 11:58:03 AM 31.8225 -96.3475 246° West 369 425 34,000  Level Fort Worth Center
Sat 11:59:03 AM 31.8047 -96.4697 260° West 369 425 34,000  Level Fort Worth Center
Sat 12:00:03 PM 31.7953 -96.5847 265° West 364 419 34,000  Level Fort Worth Center
Sat 12:01:03 PM 31.7792 -96.7047 261° West 369 425 34,000  Level Fort Worth Center
Sat 12:02:03 PM 31.7650 -96.8075 261° West 369 425 34,000 -300 Level Fort Worth Center
Sat 12:03:03 PM 31.7406 -96.9222 256° West 369 425 33,400 -1,100 Descending Fort Worth Center
Sat 12:04:03 PM 31.6447 -96.9789 207° Southwest 375 432 31,800 -2,097 Descending Fort Worth Center
Sat 12:04:46 PM 31.5600 -97.0225 204° Southwest 398 458 29,800 -2,377 Descending Houston Center
Sat 12:05:49 PM 31.4608 -97.0761 205° Southwest 390 449 27,600 -2,064 Descending Houston Center
Sat 12:06:51 PM 31.3656 -97.1267 204° Southwest 374 430 25,500 -2,032 Descending Houston Center
Sat 12:07:53 PM 31.2739 -97.1750 204° Southwest 361 415 23,400 -1,839 Descending Houston Center
Sat 12:08:55 PM 31.1822 -97.2208 203° Southwest 356 410 21,700 -1,984 Descending Houston Center
Sat 12:09:57 PM 31.0783 -97.2597 198° South 383 441 19,300 -2,419 Descending Houston Center
Sat 12:11:00 PM 30.9791 -97.2903 196° South  Level FlightAware Approximate
Sat 12:12:01 PM 30.8664 -97.3422 196° South 376 433 14,200  Level Houston Center
Sat 12:13:03 PM 30.7781 -97.3897 205° Southwest 349 402 12,000 -1,632 Descending Houston Center
Sat 12:14:06 PM 30.7011 -97.4472 213° Southwest 333 383 10,800 -1,258 Descending Houston Center
Sat 12:15:07 PM 30.6344 -97.4986 214° Southwest 297 342 9,400 -1,756 Descending Houston Center
Sat 12:16:09 PM 30.5622 -97.5558 214° Southwest 271 312 7,200 -2,081 Descending Houston Center
Sat 12:17:11 PM 30.4939 -97.5928 205° Southwest 271 312 5,100 -1,536 Descending Houston Center
Sat 12:18:14 PM 30.4253 -97.6175 197° South 260 299 4,000 -816 Descending Houston Center
Sat 12:19:16 PM 30.3642 -97.6389 197° South 233 268 3,400 -726 Descending Houston Center
Sat 12:20:18 PM 30.3069 -97.6600 198° South 221 254 2,500 -823 Descending Houston Center
Sat 12:21:20 PM 30.2606 -97.6592 179° South 183 211 1,700 -774 Descending Houston Center

Login

Don't have an account? Register now (free) for customized features, flight alerts, and more!